Ayer, Massachusetts
Current Conditions -  °F | °C
As of 6:52 AM on Sunday 25 Jan 2015 (Local Time) from KFIT Reporting Station
Broken Clouds Broken Clouds  
Wind Chill: 29°   Ceiling: 5500
Heat Index: 33°   Visibility: 10mi
Dew Point: 25°   Wind: 5mph
Humidity: 72%   Direction: 230°SW
Pressure: 29.48"   Gusts: NA
Location:  42.56°N, 71.58°W
Report Text: KFIT 251152Z AUTO 23004KT 10SM SCT037 BKN055 01/M04 A2948 RMK AO2 SLP985 70043 T00061039 10006 21011 51021
Loading
Personal Weather Stations






























Interactive Weather Map New forecast layout! Learn more

10-Day Weather Forecast

Advertisements
Track Severe Weather on mobile